sensor_id;sensor_type;location;lat;lon;timestamp;P1;durP1;ratioP1;P2;durP2;ratioP2
60641;SDS011;46837;52.446;-1.930;2023-03-05T00:00:07;12.00;;;8.74;;
60641;SDS011;46837;52.446;-1.930;2023-03-05T00:01:07;19.42;;;9.82;;
60641;SDS011;46837;52.446;-1.930;2023-03-05T00:02:07;13.66;;;9.04;;
60641;SDS011;46837;52.446;-1.930;2023-03-05T00:03:07;10.16;;;8.22;;
60641;SDS011;46837;52.446;-1.930;2023-03-05T00:04:08;13.90;;;8.66;;
60641;SDS011;46837;52.446;-1.930;2023-03-05T00:05:07;13.56;;;9.98;;
60641;SDS011;46837;52.446;-1.930;2023-03-05T00:06:07;9.72;;;8.50;;
60641;SDS011;46837;52.446;-1.930;2023-03-05T00:07:08;13.32;;;9.26;;
60641;SDS011;46837;52.446;-1.930;2023-03-05T00:08:07;12.46;;;9.12;;
60641;SDS011;46837;52.446;-1.930;2023-03-05T00:09:07;14.80;;;9.22;;
60641;SDS011;46837;52.446;-1.930;2023-03-05T00:10:07;10.32;;;9.22;;
60641;SDS011;46837;52.446;-1.930;2023-03-05T00:11:07;14.94;;;10.52;;
60641;SDS011;46837;52.446;-1.930;2023-03-05T00:12:07;11.16;;;9.82;;
60641;SDS011;46837;52.446;-1.930;2023-03-05T00:13:07;11.34;;;9.28;;
60641;SDS011;46837;52.446;-1.930;2023-03-05T00:14:07;14.96;;;8.86;;
60641;SDS011;46837;52.446;-1.930;2023-03-05T00:15:07;12.88;;;8.92;;
60641;SDS011;46837;52.446;-1.930;2023-03-05T00:16:08;14.76;;;8.86;;
60641;SDS011;46837;52.446;-1.930;2023-03-05T00:17:07;14.52;;;11.14;;
60641;SDS011;46837;52.446;-1.930;2023-03-05T00:18:07;11.76;;;9.74;;
60641;SDS011;46837;52.446;-1.930;2023-03-05T00:19:07;16.58;;;9.86;;
60641;SDS011;46837;52.446;-1.930;2023-03-05T00:20:07;18.00;;;10.50;;
60641;SDS011;46837;52.446;-1.930;2023-03-05T00:22:07;12.44;;;10.76;;
60641;SDS011;46837;52.446;-1.930;2023-03-05T00:23:07;14.78;;;11.20;;
60641;SDS011;46837;52.446;-1.930;2023-03-05T00:24:09;12.82;;;11.42;;
60641;SDS011;46837;52.446;-1.930;2023-03-05T00:25:07;19.28;;;12.12;;
60641;SDS011;46837;52.446;-1.930;2023-03-05T00:26:07;12.88;;;11.36;;
60641;SDS011;46837;52.446;-1.930;2023-03-05T00:27:07;14.70;;;10.42;;
60641;SDS011;46837;52.446;-1.930;2023-03-05T00:28:07;15.78;;;11.68;;
60641;SDS011;46837;52.446;-1.930;2023-03-05T00:29:07;14.08;;;11.42;;
60641;SDS011;46837;52.446;-1.930;2023-03-05T00:30:07;12.68;;;11.18;;
60641;SDS011;46837;52.446;-1.930;2023-03-05T00:31:07;12.04;;;10.74;;
60641;SDS011;46837;52.446;-1.930;2023-03-05T00:32:07;15.84;;;10.58;;
60641;SDS011;46837;52.446;-1.930;2023-03-05T00:33:07;14.44;;;11.50;;
60641;SDS011;46837;52.446;-1.930;2023-03-05T00:34:07;17.70;;;11.56;;
60641;SDS011;46837;52.446;-1.930;2023-03-05T00:35:07;22.02;;;12.86;;
60641;SDS011;46837;52.446;-1.930;2023-03-05T00:36:07;18.72;;;11.48;;
60641;SDS011;46837;52.446;-1.930;2023-03-05T00:37:07;12.64;;;10.60;;
60641;SDS011;46837;52.446;-1.930;2023-03-05T00:38:07;21.14;;;12.10;;
60641;SDS011;46837;52.446;-1.930;2023-03-05T00:39:07;16.30;;;11.96;;
60641;SDS011;46837;52.446;-1.930;2023-03-05T00:40:07;12.66;;;11.40;;
60641;SDS011;46837;52.446;-1.930;2023-03-05T00:41:07;15.84;;;12.04;;
60641;SDS011;46837;52.446;-1.930;2023-03-05T00:42:07;16.20;;;11.68;;
60641;SDS011;46837;52.446;-1.930;2023-03-05T00:43:07;12.86;;;11.20;;
60641;SDS011;46837;52.446;-1.930;2023-03-05T00:44:07;15.78;;;11.74;;
60641;SDS011;46837;52.446;-1.930;2023-03-05T00:45:07;15.86;;;12.74;;
60641;SDS011;46837;52.446;-1.930;2023-03-05T00:46:07;18.76;;;12.40;;
60641;SDS011;46837;52.446;-1.930;2023-03-05T00:47:07;21.54;;;12.78;;
60641;SDS011;46837;52.446;-1.930;2023-03-05T00:48:08;18.78;;;11.96;;
60641;SDS011;46837;52.446;-1.930;2023-03-05T00:49:07;16.40;;;12.38;;
60641;SDS011;46837;52.446;-1.930;2023-03-05T00:50:07;20.22;;;11.86;;
60641;SDS011;46837;52.446;-1.930;2023-03-05T00:51:07;15.72;;;11.90;;
60641;SDS011;46837;52.446;-1.930;2023-03-05T00:52:07;18.60;;;12.68;;
60641;SDS011;46837;52.446;-1.930;2023-03-05T00:53:07;20.22;;;12.80;;
60641;SDS011;46837;52.446;-1.930;2023-03-05T00:54:07;15.96;;;11.68;;
60641;SDS011;46837;52.446;-1.930;2023-03-05T00:55:07;15.94;;;13.16;;
60641;SDS011;46837;52.446;-1.930;2023-03-05T00:56:07;16.86;;;12.00;;
60641;SDS011;46837;52.446;-1.930;2023-03-05T00:57:07;14.30;;;12.64;;
60641;SDS011;46837;52.446;-1.930;2023-03-05T00:58:07;16.78;;;11.46;;
60641;SDS011;46837;52.446;-1.930;2023-03-05T00:59:07;21.88;;;12.62;;
60641;SDS011;46837;52.446;-1.930;2023-03-05T01:00:07;15.98;;;12.76;;
60641;SDS011;46837;52.446;-1.930;2023-03-05T01:01:07;15.28;;;11.70;;
60641;SDS011;46837;52.446;-1.930;2023-03-05T01:02:07;15.58;;;11.14;;
60641;SDS011;46837;52.446;-1.930;2023-03-05T01:03:07;17.08;;;12.78;;
60641;SDS011;46837;52.446;-1.930;2023-03-05T01:04:07;15.10;;;12.46;;
60641;SDS011;46837;52.446;-1.930;2023-03-05T01:05:08;17.64;;;14.12;;
60641;SDS011;46837;52.446;-1.930;2023-03-05T01:06:08;17.92;;;14.22;;
60641;SDS011;46837;52.446;-1.930;2023-03-05T01:07:07;20.14;;;13.72;;
60641;SDS011;46837;52.446;-1.930;2023-03-05T01:08:07;14.76;;;13.18;;
60641;SDS011;46837;52.446;-1.930;2023-03-05T01:09:07;15.38;;;13.62;;
60641;SDS011;46837;52.446;-1.930;2023-03-05T01:10:07;16.00;;;13.42;;
60641;SDS011;46837;52.446;-1.930;2023-03-05T01:11:07;15.42;;;13.68;;
60641;SDS011;46837;52.446;-1.930;2023-03-05T01:12:07;17.32;;;14.06;;
60641;SDS011;46837;52.446;-1.930;2023-03-05T01:13:07;21.62;;;16.54;;
60641;SDS011;46837;52.446;-1.930;2023-03-05T01:14:07;23.24;;;15.04;;
60641;SDS011;46837;52.446;-1.930;2023-03-05T01:15:07;17.38;;;13.46;;
60641;SDS011;46837;52.446;-1.930;2023-03-05T01:16:07;16.26;;;14.52;;
60641;SDS011;46837;52.446;-1.930;2023-03-05T01:17:07;20.24;;;14.08;;
60641;SDS011;46837;52.446;-1.930;2023-03-05T01:18:07;16.24;;;13.96;;
60641;SDS011;46837;52.446;-1.930;2023-03-05T01:19:07;15.10;;;13.66;;
60641;SDS011;46837;52.446;-1.930;2023-03-05T01:20:07;14.90;;;12.98;;
60641;SDS011;46837;52.446;-1.930;2023-03-05T01:21:07;16.84;;;13.82;;
60641;SDS011;46837;52.446;-1.930;2023-03-05T01:22:07;16.40;;;12.68;;
60641;SDS011;46837;52.446;-1.930;2023-03-05T01:23:07;19.50;;;12.66;;
60641;SDS011;46837;52.446;-1.930;2023-03-05T01:24:07;15.22;;;13.22;;
60641;SDS011;46837;52.446;-1.930;2023-03-05T01:25:07;14.10;;;11.96;;
60641;SDS011;46837;52.446;-1.930;2023-03-05T01:26:07;16.62;;;12.12;;
60641;SDS011;46837;52.446;-1.930;2023-03-05T01:27:07;13.08;;;11.80;;
60641;SDS011;46837;52.446;-1.930;2023-03-05T01:28:07;15.88;;;12.28;;
60641;SDS011;46837;52.446;-1.930;2023-03-05T01:29:07;14.54;;;13.00;;
60641;SDS011;46837;52.446;-1.930;2023-03-05T01:30:10;13.68;;;12.08;;
60641;SDS011;46837;52.446;-1.930;2023-03-05T01:31:10;22.36;;;14.02;;
60641;SDS011;46837;52.446;-1.930;2023-03-05T01:32:07;14.40;;;12.06;;
60641;SDS011;46837;52.446;-1.930;2023-03-05T01:33:07;20.86;;;14.72;;
60641;SDS011;46837;52.446;-1.930;2023-03-05T01:34:07;19.60;;;12.86;;
60641;SDS011;46837;52.446;-1.930;2023-03-05T01:35:07;15.44;;;12.82;;
60641;SDS011;46837;52.446;-1.930;2023-03-05T01:36:07;17.58;;;13.50;;
60641;SDS011;46837;52.446;-1.930;2023-03-05T01:37:07;14.22;;;12.18;;
60641;SDS011;46837;52.446;-1.930;2023-03-05T01:38:07;17.34;;;12.16;;
60641;SDS011;46837;52.446;-1.930;2023-03-05T01:39:07;16.08;;;12.76;;
60641;SDS011;46837;52.446;-1.930;2023-03-05T01:40:07;15.58;;;11.50;;
60641;SDS011;46837;52.446;-1.930;2023-03-05T01:41:08;13.68;;;11.00;;
60641;SDS011;46837;52.446;-1.930;2023-03-05T01:42:07;12.02;;;10.74;;
60641;SDS011;46837;52.446;-1.930;2023-03-05T01:44:14;15.04;;;10.66;;
60641;SDS011;46837;52.446;-1.930;2023-03-05T01:45:08;11.30;;;10.22;;
60641;SDS011;46837;52.446;-1.930;2023-03-05T01:47:07;12.88;;;10.74;;
60641;SDS011;46837;52.446;-1.930;2023-03-05T01:48:07;15.64;;;10.04;;
60641;SDS011;46837;52.446;-1.930;2023-03-05T01:50:08;10.52;;;9.64;;
60641;SDS011;46837;52.446;-1.930;2023-03-05T01:51:07;14.94;;;11.64;;
60641;SDS011;46837;52.446;-1.930;2023-03-05T01:52:10;11.92;;;9.52;;
60641;SDS011;46837;52.446;-1.930;2023-03-05T01:53:07;15.98;;;11.84;;
60641;SDS011;46837;52.446;-1.930;2023-03-05T01:54:07;14.50;;;11.30;;
60641;SDS011;46837;52.446;-1.930;2023-03-05T01:55:08;12.10;;;9.72;;
60641;SDS011;46837;52.446;-1.930;2023-03-05T01:56:07;11.84;;;8.38;;
60641;SDS011;46837;52.446;-1.930;2023-03-05T01:57:08;10.28;;;8.24;;
60641;SDS011;46837;52.446;-1.930;2023-03-05T01:58:07;18.40;;;8.84;;
60641;SDS011;46837;52.446;-1.930;2023-03-05T01:59:07;9.12;;;8.22;;
60641;SDS011;46837;52.446;-1.930;2023-03-05T02:00:09;8.80;;;7.26;;
60641;SDS011;46837;52.446;-1.930;2023-03-05T02:01:07;8.30;;;7.36;;
60641;SDS011;46837;52.446;-1.930;2023-03-05T02:02:07;8.36;;;7.24;;
60641;SDS011;46837;52.446;-1.930;2023-03-05T02:03:07;9.88;;;6.76;;
60641;SDS011;46837;52.446;-1.930;2023-03-05T02:04:08;10.32;;;7.86;;
60641;SDS011;46837;52.446;-1.930;2023-03-05T02:05:10;12.50;;;6.82;;
60641;SDS011;46837;52.446;-1.930;2023-03-05T02:06:07;9.20;;;7.68;;
60641;SDS011;46837;52.446;-1.930;2023-03-05T02:07:07;7.54;;;6.12;;
60641;SDS011;46837;52.446;-1.930;2023-03-05T02:08:08;10.04;;;6.18;;
60641;SDS011;46837;52.446;-1.930;2023-03-05T02:09:07;10.12;;;7.10;;
60641;SDS011;46837;52.446;-1.930;2023-03-05T02:11:07;11.90;;;7.40;;
60641;SDS011;46837;52.446;-1.930;2023-03-05T02:12:07;7.28;;;5.88;;
60641;SDS011;46837;52.446;-1.930;2023-03-05T02:13:11;8.12;;;7.08;;
60641;SDS011;46837;52.446;-1.930;2023-03-05T02:14:07;10.66;;;7.16;;
60641;SDS011;46837;52.446;-1.930;2023-03-05T02:15:07;6.84;;;6.14;;
60641;SDS011;46837;52.446;-1.930;2023-03-05T02:16:07;13.58;;;6.72;;
60641;SDS011;46837;52.446;-1.930;2023-03-05T02:17:07;9.82;;;6.74;;
60641;SDS011;46837;52.446;-1.930;2023-03-05T02:18:07;8.66;;;6.80;;
60641;SDS011;46837;52.446;-1.930;2023-03-05T02:19:08;7.84;;;6.00;;
60641;SDS011;46837;52.446;-1.930;2023-03-05T02:20:11;9.18;;;6.90;;
60641;SDS011;46837;52.446;-1.930;2023-03-05T02:21:07;10.14;;;7.74;;
60641;SDS011;46837;52.446;-1.930;2023-03-05T02:22:12;10.84;;;7.72;;
60641;SDS011;46837;52.446;-1.930;2023-03-05T02:23:07;6.06;;;5.54;;
60641;SDS011;46837;52.446;-1.930;2023-03-05T02:24:08;12.16;;;6.28;;
60641;SDS011;46837;52.446;-1.930;2023-03-05T02:25:25;7.56;;;6.12;;
60641;SDS011;46837;52.446;-1.930;2023-03-05T02:26:09;7.86;;;6.90;;
60641;SDS011;46837;52.446;-1.930;2023-03-05T02:27:07;11.64;;;7.30;;
60641;SDS011;46837;52.446;-1.930;2023-03-05T02:28:08;8.08;;;7.32;;
60641;SDS011;46837;52.446;-1.930;2023-03-05T02:29:07;10.52;;;8.26;;
60641;SDS011;46837;52.446;-1.930;2023-03-05T02:30:07;9.94;;;6.76;;
60641;SDS011;46837;52.446;-1.930;2023-03-05T02:31:12;11.60;;;7.38;;
60641;SDS011;46837;52.446;-1.930;2023-03-05T02:32:07;14.54;;;7.24;;
60641;SDS011;46837;52.446;-1.930;2023-03-05T02:33:07;12.98;;;7.54;;
60641;SDS011;46837;52.446;-1.930;2023-03-05T02:34:07;10.68;;;7.02;;
60641;SDS011;46837;52.446;-1.930;2023-03-05T02:35:07;12.30;;;7.68;;
60641;SDS011;46837;52.446;-1.930;2023-03-05T02:36:07;10.66;;;7.84;;
60641;SDS011;46837;52.446;-1.930;2023-03-05T02:37:08;12.86;;;7.02;;
60641;SDS011;46837;52.446;-1.930;2023-03-05T02:38:07;10.88;;;6.62;;
60641;SDS011;46837;52.446;-1.930;2023-03-05T02:39:07;10.60;;;8.30;;
60641;SDS011;46837;52.446;-1.930;2023-03-05T02:40:07;10.68;;;6.74;;
60641;SDS011;46837;52.446;-1.930;2023-03-05T02:41:07;15.60;;;8.00;;
60641;SDS011;46837;52.446;-1.930;2023-03-05T02:42:07;12.60;;;8.64;;
60641;SDS011;46837;52.446;-1.930;2023-03-05T02:43:07;13.92;;;7.72;;
60641;SDS011;46837;52.446;-1.930;2023-03-05T02:44:07;12.98;;;8.86;;
60641;SDS011;46837;52.446;-1.930;2023-03-05T02:45:07;10.64;;;8.22;;
60641;SDS011;46837;52.446;-1.930;2023-03-05T02:46:07;10.46;;;6.92;;
60641;SDS011;46837;52.446;-1.930;2023-03-05T02:47:07;13.40;;;8.00;;
60641;SDS011;46837;52.446;-1.930;2023-03-05T02:48:07;10.06;;;7.50;;
60641;SDS011;46837;52.446;-1.930;2023-03-05T02:49:07;7.84;;;7.06;;
60641;SDS011;46837;52.446;-1.930;2023-03-05T02:50:07;13.52;;;8.84;;
60641;SDS011;46837;52.446;-1.930;2023-03-05T02:51:07;9.00;;;8.00;;
60641;SDS011;46837;52.446;-1.930;2023-03-05T02:52:07;10.30;;;8.04;;
60641;SDS011;46837;52.446;-1.930;2023-03-05T02:53:07;13.08;;;8.02;;
60641;SDS011;46837;52.446;-1.930;2023-03-05T02:54:07;13.64;;;8.04;;
60641;SDS011;46837;52.446;-1.930;2023-03-05T02:55:07;14.36;;;9.30;;
60641;SDS011;46837;52.446;-1.930;2023-03-05T02:56:07;12.72;;;8.92;;
60641;SDS011;46837;52.446;-1.930;2023-03-05T02:57:07;13.24;;;8.76;;
60641;SDS011;46837;52.446;-1.930;2023-03-05T02:58:07;12.88;;;8.32;;
60641;SDS011;46837;52.446;-1.930;2023-03-05T02:59:07;11.44;;;9.68;;
60641;SDS011;46837;52.446;-1.930;2023-03-05T03:00:07;15.54;;;9.32;;
60641;SDS011;46837;52.446;-1.930;2023-03-05T03:01:07;15.52;;;9.16;;
60641;SDS011;46837;52.446;-1.930;2023-03-05T03:02:07;10.44;;;9.18;;
60641;SDS011;46837;52.446;-1.930;2023-03-05T03:03:07;18.66;;;9.32;;
60641;SDS011;46837;52.446;-1.930;2023-03-05T03:04:07;11.66;;;8.52;;
60641;SDS011;46837;52.446;-1.930;2023-03-05T03:05:07;14.26;;;8.72;;
60641;SDS011;46837;52.446;-1.930;2023-03-05T03:06:07;11.26;;;10.06;;
60641;SDS011;46837;52.446;-1.930;2023-03-05T03:07:07;13.14;;;8.50;;
60641;SDS011;46837;52.446;-1.930;2023-03-05T03:08:07;15.76;;;8.86;;
60641;SDS011;46837;52.446;-1.930;2023-03-05T03:09:07;12.98;;;9.38;;
60641;SDS011;46837;52.446;-1.930;2023-03-05T03:10:07;12.80;;;8.24;;
60641;SDS011;46837;52.446;-1.930;2023-03-05T03:11:07;12.04;;;8.74;;
60641;SDS011;46837;52.446;-1.930;2023-03-05T03:12:07;13.78;;;10.18;;
60641;SDS011;46837;52.446;-1.930;2023-03-05T03:13:07;10.66;;;9.52;;
60641;SDS011;46837;52.446;-1.930;2023-03-05T03:14:07;15.72;;;9.50;;
60641;SDS011;46837;52.446;-1.930;2023-03-05T03:15:08;10.18;;;8.08;;
60641;SDS011;46837;52.446;-1.930;2023-03-05T03:16:08;14.78;;;9.34;;
60641;SDS011;46837;52.446;-1.930;2023-03-05T03:17:07;11.28;;;9.22;;
60641;SDS011;46837;52.446;-1.930;2023-03-05T03:18:07;11.06;;;8.84;;
60641;SDS011;46837;52.446;-1.930;2023-03-05T03:19:07;13.92;;;9.66;;
60641;SDS011;46837;52.446;-1.930;2023-03-05T03:20:08;13.06;;;10.12;;
60641;SDS011;46837;52.446;-1.930;2023-03-05T03:21:07;13.40;;;9.46;;
60641;SDS011;46837;52.446;-1.930;2023-03-05T03:22:07;11.88;;;9.22;;
60641;SDS011;46837;52.446;-1.930;2023-03-05T03:23:07;19.78;;;9.82;;
60641;SDS011;46837;52.446;-1.930;2023-03-05T03:24:07;13.82;;;9.84;;
60641;SDS011;46837;52.446;-1.930;2023-03-05T03:25:07;16.30;;;9.36;;
60641;SDS011;46837;52.446;-1.930;2023-03-05T03:26:07;11.28;;;9.46;;
60641;SDS011;46837;52.446;-1.930;2023-03-05T03:27:07;10.46;;;9.18;;
60641;SDS011;46837;52.446;-1.930;2023-03-05T03:28:07;14.94;;;10.46;;
60641;SDS011;46837;52.446;-1.930;2023-03-05T03:29:07;13.44;;;10.20;;
60641;SDS011;46837;52.446;-1.930;2023-03-05T03:30:07;11.72;;;10.18;;
60641;SDS011;46837;52.446;-1.930;2023-03-05T03:31:07;12.58;;;10.66;;
60641;SDS011;46837;52.446;-1.930;2023-03-05T03:32:07;11.42;;;9.66;;
60641;SDS011;46837;52.446;-1.930;2023-03-05T03:33:07;15.64;;;9.80;;
60641;SDS011;46837;52.446;-1.930;2023-03-05T03:34:07;10.10;;;9.10;;
60641;SDS011;46837;52.446;-1.930;2023-03-05T03:35:07;11.12;;;9.96;;
60641;SDS011;46837;52.446;-1.930;2023-03-05T03:36:07;11.88;;;9.48;;
60641;SDS011;46837;52.446;-1.930;2023-03-05T03:37:07;11.32;;;9.86;;
60641;SDS011;46837;52.446;-1.930;2023-03-05T03:38:07;13.58;;;9.48;;
60641;SDS011;46837;52.446;-1.930;2023-03-05T03:39:07;12.84;;;9.42;;
60641;SDS011;46837;52.446;-1.930;2023-03-05T03:40:07;12.54;;;10.36;;
60641;SDS011;46837;52.446;-1.930;2023-03-05T03:41:07;12.04;;;9.58;;
60641;SDS011;46837;52.446;-1.930;2023-03-05T03:42:07;14.44;;;10.58;;
60641;SDS011;46837;52.446;-1.930;2023-03-05T03:43:07;10.42;;;9.36;;
60641;SDS011;46837;52.446;-1.930;2023-03-05T03:44:08;11.26;;;9.16;;
60641;SDS011;46837;52.446;-1.930;2023-03-05T03:45:07;18.16;;;11.10;;
60641;SDS011;46837;52.446;-1.930;2023-03-05T03:46:07;10.76;;;9.66;;
60641;SDS011;46837;52.446;-1.930;2023-03-05T03:47:07;16.90;;;10.56;;
60641;SDS011;46837;52.446;-1.930;2023-03-05T03:48:07;15.90;;;10.60;;
60641;SDS011;46837;52.446;-1.930;2023-03-05T03:49:07;16.04;;;10.62;;
60641;SDS011;46837;52.446;-1.930;2023-03-05T03:50:07;12.58;;;10.78;;
60641;SDS011;46837;52.446;-1.930;2023-03-05T03:51:07;13.26;;;10.24;;
60641;SDS011;46837;52.446;-1.930;2023-03-05T03:52:07;15.04;;;11.06;;
60641;SDS011;46837;52.446;-1.930;2023-03-05T03:53:07;12.12;;;10.38;;
60641;SDS011;46837;52.446;-1.930;2023-03-05T03:54:07;15.30;;;12.38;;
60641;SDS011;46837;52.446;-1.930;2023-03-05T03:55:07;15.32;;;10.64;;
60641;SDS011;46837;52.446;-1.930;2023-03-05T03:56:07;17.96;;;10.14;;
60641;SDS011;46837;52.446;-1.930;2023-03-05T03:57:07;12.24;;;9.88;;
60641;SDS011;46837;52.446;-1.930;2023-03-05T03:58:07;13.08;;;10.60;;
60641;SDS011;46837;52.446;-1.930;2023-03-05T03:59:07;12.12;;;10.52;;
60641;SDS011;46837;52.446;-1.930;2023-03-05T04:00:07;12.04;;;10.62;;
60641;SDS011;46837;52.446;-1.930;2023-03-05T04:01:07;12.36;;;9.00;;
60641;SDS011;46837;52.446;-1.930;2023-03-05T04:02:07;11.16;;;9.10;;
60641;SDS011;46837;52.446;-1.930;2023-03-05T04:03:07;12.32;;;9.72;;
60641;SDS011;46837;52.446;-1.930;2023-03-05T04:04:07;16.48;;;10.40;;
60641;SDS011;46837;52.446;-1.930;2023-03-05T04:05:07;12.48;;;9.10;;
60641;SDS011;46837;52.446;-1.930;2023-03-05T04:06:07;14.50;;;10.64;;
60641;SDS011;46837;52.446;-1.930;2023-03-05T04:07:07;14.28;;;9.78;;
60641;SDS011;46837;52.446;-1.930;2023-03-05T04:08:11;12.20;;;9.60;;
60641;SDS011;46837;52.446;-1.930;2023-03-05T04:09:07;10.96;;;9.70;;
60641;SDS011;46837;52.446;-1.930;2023-03-05T04:10:07;10.96;;;8.78;;
60641;SDS011;46837;52.446;-1.930;2023-03-05T04:11:07;14.28;;;9.20;;
60641;SDS011;46837;52.446;-1.930;2023-03-05T04:12:07;10.56;;;9.38;;
60641;SDS011;46837;52.446;-1.930;2023-03-05T04:13:07;17.14;;;9.92;;
60641;SDS011;46837;52.446;-1.930;2023-03-05T04:14:07;11.04;;;9.68;;
60641;SDS011;46837;52.446;-1.930;2023-03-05T04:15:07;12.68;;;9.22;;
60641;SDS011;46837;52.446;-1.930;2023-03-05T04:16:07;14.06;;;9.42;;
60641;SDS011;46837;52.446;-1.930;2023-03-05T04:17:07;13.28;;;10.10;;
60641;SDS011;46837;52.446;-1.930;2023-03-05T04:18:07;16.76;;;9.90;;
60641;SDS011;46837;52.446;-1.930;2023-03-05T04:19:07;12.06;;;9.96;;
60641;SDS011;46837;52.446;-1.930;2023-03-05T04:20:07;12.38;;;10.22;;
60641;SDS011;46837;52.446;-1.930;2023-03-05T04:21:07;14.16;;;10.26;;
60641;SDS011;46837;52.446;-1.930;2023-03-05T04:22:09;11.54;;;8.78;;
60641;SDS011;46837;52.446;-1.930;2023-03-05T04:23:07;14.14;;;10.38;;
60641;SDS011;46837;52.446;-1.930;2023-03-05T04:24:07;11.24;;;9.64;;
60641;SDS011;46837;52.446;-1.930;2023-03-05T04:25:07;12.86;;;9.12;;
60641;SDS011;46837;52.446;-1.930;2023-03-05T04:26:07;15.96;;;10.28;;
60641;SDS011;46837;52.446;-1.930;2023-03-05T04:27:07;10.80;;;9.18;;
60641;SDS011;46837;52.446;-1.930;2023-03-05T04:28:07;12.38;;;10.00;;
60641;SDS011;46837;52.446;-1.930;2023-03-05T04:29:07;15.04;;;10.28;;
60641;SDS011;46837;52.446;-1.930;2023-03-05T04:30:07;17.14;;;10.52;;
60641;SDS011;46837;52.446;-1.930;2023-03-05T04:31:07;11.52;;;8.96;;
60641;SDS011;46837;52.446;-1.930;2023-03-05T04:32:07;12.02;;;9.98;;
60641;SDS011;46837;52.446;-1.930;2023-03-05T04:33:07;15.26;;;10.22;;
60641;SDS011;46837;52.446;-1.930;2023-03-05T04:34:07;15.28;;;10.18;;
60641;SDS011;46837;52.446;-1.930;2023-03-05T04:35:07;13.14;;;10.02;;
60641;SDS011;46837;52.446;-1.930;2023-03-05T04:36:07;15.18;;;10.46;;
60641;SDS011;46837;52.446;-1.930;2023-03-05T04:37:07;13.20;;;11.22;;
60641;SDS011;46837;52.446;-1.930;2023-03-05T04:38:07;10.12;;;8.62;;
60641;SDS011;46837;52.446;-1.930;2023-03-05T04:39:07;16.24;;;10.60;;
60641;SDS011;46837;52.446;-1.930;2023-03-05T04:40:07;15.26;;;10.02;;
60641;SDS011;46837;52.446;-1.930;2023-03-05T04:41:07;13.28;;;9.88;;
60641;SDS011;46837;52.446;-1.930;2023-03-05T04:42:07;15.64;;;10.30;;
60641;SDS011;46837;52.446;-1.930;2023-03-05T04:43:07;10.70;;;8.94;;
60641;SDS011;46837;52.446;-1.930;2023-03-05T04:44:07;16.86;;;10.28;;
60641;SDS011;46837;52.446;-1.930;2023-03-05T04:45:07;13.66;;;9.92;;
60641;SDS011;46837;52.446;-1.930;2023-03-05T04:46:07;14.42;;;10.66;;
60641;SDS011;46837;52.446;-1.930;2023-03-05T04:47:07;14.58;;;9.42;;
60641;SDS011;46837;52.446;-1.930;2023-03-05T04:48:07;13.72;;;10.06;;
60641;SDS011;46837;52.446;-1.930;2023-03-05T04:49:07;12.90;;;10.04;;
60641;SDS011;46837;52.446;-1.930;2023-03-05T04:50:07;11.66;;;9.40;;
60641;SDS011;46837;52.446;-1.930;2023-03-05T04:51:07;13.58;;;9.70;;
60641;SDS011;46837;52.446;-1.930;2023-03-05T04:52:07;12.14;;;9.86;;
60641;SDS011;46837;52.446;-1.930;2023-03-05T04:53:07;14.08;;;10.04;;
60641;SDS011;46837;52.446;-1.930;2023-03-05T04:54:07;14.08;;;9.84;;
60641;SDS011;46837;52.446;-1.930;2023-03-05T04:55:07;13.60;;;10.60;;
60641;SDS011;46837;52.446;-1.930;2023-03-05T04:56:07;13.94;;;9.78;;
60641;SDS011;46837;52.446;-1.930;2023-03-05T04:57:07;14.00;;;10.04;;
60641;SDS011;46837;52.446;-1.930;2023-03-05T04:58:07;13.66;;;9.74;;
60641;SDS011;46837;52.446;-1.930;2023-03-05T04:59:07;15.12;;;10.82;;
60641;SDS011;46837;52.446;-1.930;2023-03-05T05:00:13;13.70;;;10.38;;
60641;SDS011;46837;52.446;-1.930;2023-03-05T05:01:07;11.56;;;9.82;;
60641;SDS011;46837;52.446;-1.930;2023-03-05T05:02:07;13.00;;;8.52;;
60641;SDS011;46837;52.446;-1.930;2023-03-05T05:03:07;14.78;;;9.56;;
60641;SDS011;46837;52.446;-1.930;2023-03-05T05:04:07;14.00;;;9.98;;
60641;SDS011;46837;52.446;-1.930;2023-03-05T05:05:08;16.92;;;10.16;;
60641;SDS011;46837;52.446;-1.930;2023-03-05T05:06:07;14.72;;;10.08;;
60641;SDS011;46837;52.446;-1.930;2023-03-05T05:07:07;16.40;;;10.28;;
60641;SDS011;46837;52.446;-1.930;2023-03-05T05:08:07;12.56;;;9.46;;
60641;SDS011;46837;52.446;-1.930;2023-03-05T05:09:07;12.94;;;9.02;;
60641;SDS011;46837;52.446;-1.930;2023-03-05T05:10:07;11.86;;;9.62;;
60641;SDS011;46837;52.446;-1.930;2023-03-05T05:11:07;12.48;;;8.96;;
60641;SDS011;46837;52.446;-1.930;2023-03-05T05:12:07;14.64;;;9.08;;
60641;SDS011;46837;52.446;-1.930;2023-03-05T05:13:07;10.24;;;8.30;;
60641;SDS011;46837;52.446;-1.930;2023-03-05T05:14:07;14.30;;;10.08;;
60641;SDS011;46837;52.446;-1.930;2023-03-05T05:15:07;13.64;;;9.62;;
60641;SDS011;46837;52.446;-1.930;2023-03-05T05:16:07;11.34;;;8.92;;
60641;SDS011;46837;52.446;-1.930;2023-03-05T05:17:08;16.10;;;9.64;;
60641;SDS011;46837;52.446;-1.930;2023-03-05T05:18:07;17.86;;;10.14;;
60641;SDS011;46837;52.446;-1.930;2023-03-05T05:19:07;12.44;;;9.22;;
60641;SDS011;46837;52.446;-1.930;2023-03-05T05:20:07;11.24;;;9.44;;
60641;SDS011;46837;52.446;-1.930;2023-03-05T05:21:10;12.78;;;9.26;;
60641;SDS011;46837;52.446;-1.930;2023-03-05T05:22:07;13.20;;;8.54;;
60641;SDS011;46837;52.446;-1.930;2023-03-05T05:23:07;13.12;;;9.78;;
60641;SDS011;46837;52.446;-1.930;2023-03-05T05:24:07;12.18;;;8.82;;
60641;SDS011;46837;52.446;-1.930;2023-03-05T05:25:07;15.42;;;10.32;;
60641;SDS011;46837;52.446;-1.930;2023-03-05T05:26:07;11.52;;;9.50;;
60641;SDS011;46837;52.446;-1.930;2023-03-05T05:27:07;9.98;;;8.62;;
60641;SDS011;46837;52.446;-1.930;2023-03-05T05:28:07;15.34;;;10.26;;
60641;SDS011;46837;52.446;-1.930;2023-03-05T05:29:07;13.88;;;9.30;;
60641;SDS011;46837;52.446;-1.930;2023-03-05T05:30:07;15.32;;;9.34;;
60641;SDS011;46837;52.446;-1.930;2023-03-05T05:31:07;11.00;;;8.50;;
60641;SDS011;46837;52.446;-1.930;2023-03-05T05:32:07;13.44;;;8.94;;
60641;SDS011;46837;52.446;-1.930;2023-03-05T05:33:07;20.08;;;11.26;;
60641;SDS011;46837;52.446;-1.930;2023-03-05T05:34:07;12.24;;;9.26;;
60641;SDS011;46837;52.446;-1.930;2023-03-05T05:35:07;11.68;;;9.46;;
60641;SDS011;46837;52.446;-1.930;2023-03-05T05:36:07;12.42;;;9.54;;
60641;SDS011;46837;52.446;-1.930;2023-03-05T05:37:07;12.82;;;9.00;;
60641;SDS011;46837;52.446;-1.930;2023-03-05T05:38:07;11.86;;;9.98;;
60641;SDS011;46837;52.446;-1.930;2023-03-05T05:39:07;14.52;;;9.08;;
60641;SDS011;46837;52.446;-1.930;2023-03-05T05:40:07;13.92;;;8.94;;
60641;SDS011;46837;52.446;-1.930;2023-03-05T05:41:08;11.30;;;8.06;;
60641;SDS011;46837;52.446;-1.930;2023-03-05T05:42:07;11.20;;;8.08;;
60641;SDS011;46837;52.446;-1.930;2023-03-05T05:43:07;11.08;;;8.14;;
60641;SDS011;46837;52.446;-1.930;2023-03-05T05:44:07;10.90;;;8.90;;
60641;SDS011;46837;52.446;-1.930;2023-03-05T05:45:07;11.26;;;8.98;;
60641;SDS011;46837;52.446;-1.930;2023-03-05T05:46:09;13.72;;;8.44;;
60641;SDS011;46837;52.446;-1.930;2023-03-05T05:47:07;11.90;;;8.48;;
60641;SDS011;46837;52.446;-1.930;2023-03-05T05:48:07;10.86;;;8.66;;
60641;SDS011;46837;52.446;-1.930;2023-03-05T05:49:07;11.10;;;8.26;;
60641;SDS011;46837;52.446;-1.930;2023-03-05T05:50:07;10.90;;;8.44;;
60641;SDS011;46837;52.446;-1.930;2023-03-05T05:51:07;10.74;;;8.30;;
60641;SDS011;46837;52.446;-1.930;2023-03-05T05:52:07;10.18;;;8.16;;
60641;SDS011;46837;52.446;-1.930;2023-03-05T05:53:07;9.62;;;7.92;;